Terminal Aerodrome Forecast
Issued by NWS Bismarck, ND

Home | Current Version | Previous Version | Graphics & Text | Print | Product List | Glossary On
Versions: 1 2 3 4 5 6 7 8 9 10 11 12 13 14 15 16 17 18 19 20 21 22 23 24 25 26 27 28
764
FTUS43 KBIS 241130
TAFBIS
TAF
KBIS 241130Z 2412/2512 11007KT 6SM BR BKN090 WS020/17040KT
     FM241700 19014G20KT P6SM BKN110
     FM250000 22012KT P6SM BKN090
     FM250500 26013KT P6SM BKN035
     FM250700 28015G22KT P6SM OVC015
     FM251000 30020G29KT P6SM OVC020=

USA.gov is the U.S. government's official web portal to all federal, state and local government web resources and services.